createdAt,value
2022-09-06T00:00:17.002Z,21.39
2022-09-06T00:02:44.149Z,21.40
2022-09-06T00:05:11.835Z,21.36
2022-09-06T00:07:38.867Z,21.37
2022-09-06T00:10:06.533Z,21.30
2022-09-06T00:12:33.506Z,21.36
2022-09-06T00:15:00.097Z,21.35
2022-09-06T00:17:26.693Z,21.30
2022-09-06T00:19:53.230Z,21.34
2022-09-06T00:22:19.830Z,21.33
2022-09-06T00:24:46.340Z,21.35
2022-09-06T00:27:12.916Z,21.32
2022-09-06T00:29:39.674Z,21.26
2022-09-06T00:32:06.302Z,21.27
2022-09-06T00:34:32.802Z,21.28
2022-09-06T00:36:59.550Z,21.22
2022-09-06T00:39:26.125Z,21.20
2022-09-06T00:41:52.763Z,21.16
2022-09-06T00:44:19.426Z,21.20
2022-09-06T00:46:48.145Z,21.10
2022-09-06T00:49:24.276Z,21.09
2022-09-06T00:51:58.672Z,21.12
2022-09-06T00:54:25.925Z,21.12
2022-09-06T00:56:52.594Z,21.13
2022-09-06T00:59:19.197Z,21.15
2022-09-06T01:01:45.881Z,21.17
2022-09-06T01:04:13.093Z,21.17
2022-09-06T01:07:06.133Z,21.09
2022-09-06T01:10:01.968Z,21.15
2022-09-06T01:12:47.185Z,21.15
2022-09-06T01:15:32.041Z,21.06
2022-09-06T01:18:10.542Z,21.05
2022-09-06T01:20:43.106Z,20.95
2022-09-06T01:23:20.365Z,20.97
2022-09-06T01:25:59.936Z,20.93
2022-09-06T01:28:43.844Z,20.93
2022-09-06T01:31:13.465Z,20.86
2022-09-06T01:34:14.298Z,20.78
2022-09-06T01:37:08.847Z,20.86
2022-09-06T01:39:37.318Z,20.87
2022-09-06T01:42:28.598Z,20.87
2022-09-06T01:45:09.389Z,20.87
2022-09-06T01:47:44.854Z,20.88
2022-09-06T01:50:33.141Z,20.90
2022-09-06T01:53:05.546Z,20.83
2022-09-06T01:55:50.046Z,20.83
2022-09-06T01:58:42.803Z,20.87
2022-09-06T02:01:21.293Z,20.83
2022-09-06T02:03:52.461Z,20.80
2022-09-06T02:06:26.714Z,20.80
2022-09-06T02:09:04.510Z,20.76
2022-09-06T02:11:48.059Z,20.79
2022-09-06T02:14:40.258Z,20.76
2022-09-06T02:17:11.691Z,20.82
2022-09-06T02:19:54.761Z,20.79
2022-09-06T02:22:27.338Z,20.74
2022-09-06T02:24:55.617Z,20.70
2022-09-06T02:27:22.369Z,20.65
2022-09-06T02:29:49.034Z,20.69
2022-09-06T02:32:22.183Z,20.62
2022-09-06T02:34:54.354Z,20.58
2022-09-06T02:37:21.173Z,20.62
2022-09-06T02:39:47.732Z,20.65
2022-09-06T02:42:15.745Z,20.64
2022-09-06T02:44:42.238Z,20.58
2022-09-06T02:47:09.040Z,20.56
2022-09-06T02:49:35.804Z,20.52
2022-09-06T02:52:02.479Z,20.55
2022-09-06T02:54:28.987Z,20.49
2022-09-06T02:56:55.582Z,20.48
2022-09-06T02:59:22.131Z,20.44
2022-09-06T03:01:48.649Z,20.36
2022-09-06T03:04:15.486Z,20.37
2022-09-06T03:06:41.992Z,20.39
2022-09-06T03:09:10.412Z,20.37
2022-09-06T03:11:38.103Z,20.33
2022-09-06T03:14:04.863Z,20.44
2022-09-06T03:16:31.482Z,20.43
2022-09-06T03:18:58.082Z,20.48
2022-09-06T03:21:24.783Z,20.47
2022-09-06T03:23:51.339Z,20.46
2022-09-06T03:26:17.865Z,20.44
2022-09-06T03:28:44.355Z,20.42
2022-09-06T03:31:11.217Z,20.46
2022-09-06T03:33:37.940Z,20.58
2022-09-06T03:36:04.597Z,20.67
2022-09-06T03:38:31.154Z,20.69
2022-09-06T03:40:58.008Z,20.63
2022-09-06T03:43:25.819Z,20.60
2022-09-06T03:45:54.780Z,20.57
2022-09-06T03:48:22.800Z,20.57
2022-09-06T03:50:52.269Z,20.59
2022-09-06T03:53:19.033Z,20.59
2022-09-06T03:55:51.004Z,20.58
2022-09-06T03:58:19.573Z,20.64
2022-09-06T04:00:46.187Z,20.60
2022-09-06T04:03:13.569Z,20.66
2022-09-06T04:05:40.553Z,20.65
2022-09-06T04:08:07.074Z,20.64
2022-09-06T04:10:33.940Z,20.60
2022-09-06T04:13:00.503Z,20.57
2022-09-06T04:15:27.009Z,20.56
2022-09-06T04:17:53.764Z,20.58
2022-09-06T04:20:20.276Z,20.64
2022-09-06T04:22:46.783Z,20.57
2022-09-06T04:25:13.923Z,20.53
2022-09-06T04:27:40.535Z,20.53
2022-09-06T04:30:07.985Z,20.54
2022-09-06T04:32:34.600Z,20.46
2022-09-06T04:35:01.113Z,20.39
2022-09-06T04:37:27.603Z,20.42
2022-09-06T04:39:54.285Z,20.40
2022-09-06T04:42:20.870Z,20.42
2022-09-06T04:44:47.360Z,20.42
2022-09-06T04:47:15.879Z,20.40
2022-09-06T04:49:42.891Z,20.33
2022-09-06T04:52:10.342Z,20.33
2022-09-06T04:54:37.050Z,20.28
2022-09-06T04:57:03.930Z,20.27
2022-09-06T04:59:30.558Z,20.14
2022-09-06T05:01:57.280Z,20.12
2022-09-06T05:04:24.073Z,20.13
2022-09-06T05:06:50.807Z,20.15
2022-09-06T05:09:17.324Z,20.14
2022-09-06T05:11:43.842Z,20.10
2022-09-06T05:14:10.339Z,20.21
2022-09-06T05:16:37.048Z,20.25
2022-09-06T05:19:03.600Z,20.18
2022-09-06T05:21:30.245Z,20.25
2022-09-06T05:23:58.861Z,20.30
2022-09-06T05:26:25.720Z,20.34
2022-09-06T05:28:52.256Z,20.37
2022-09-06T05:31:28.458Z,20.39
2022-09-06T05:33:56.148Z,20.36
2022-09-06T05:36:23.597Z,20.31
2022-09-06T05:38:51.449Z,20.34
2022-09-06T05:41:18.286Z,20.40
2022-09-06T05:43:45.108Z,20.35
2022-09-06T05:46:12.259Z,20.38
2022-09-06T05:48:39.312Z,20.43
2022-09-06T05:51:08.992Z,20.48
2022-09-06T05:53:37.327Z,20.61
2022-09-06T05:56:05.378Z,20.64
2022-09-06T05:58:32.534Z,20.68
2022-09-06T06:01:16.058Z,20.71
2022-09-06T06:03:43.489Z,20.77
2022-09-06T06:06:10.137Z,20.79
2022-09-06T06:08:36.650Z,20.79
2022-09-06T06:11:03.232Z,20.83
2022-09-06T06:13:29.960Z,20.75
2022-09-06T06:15:56.711Z,20.81
2022-09-06T06:18:23.405Z,20.89
2022-09-06T06:20:49.995Z,20.93
2022-09-06T06:23:16.850Z,20.92
2022-09-06T06:25:43.374Z,20.93
2022-09-06T06:28:10.019Z,20.89
2022-09-06T06:30:36.575Z,20.93
2022-09-06T06:33:03.131Z,20.99
2022-09-06T06:35:29.652Z,20.96
2022-09-06T06:37:56.447Z,20.94
2022-09-06T06:40:22.970Z,20.99
2022-09-06T06:42:49.527Z,21.03
2022-09-06T06:45:16.173Z,21.08
2022-09-06T06:47:42.762Z,21.05
2022-09-06T06:50:09.735Z,21.12
2022-09-06T06:52:36.290Z,21.12
2022-09-06T06:55:02.826Z,21.09
2022-09-06T06:57:29.386Z,21.12
2022-09-06T06:59:55.893Z,21.19
2022-09-06T07:02:22.460Z,21.27
2022-09-06T07:04:49.048Z,21.36
2022-09-06T07:07:32.852Z,21.43
2022-09-06T07:12:48.034Z,21.45
2022-09-06T07:15:14.610Z,21.36
2022-09-06T07:17:41.097Z,21.43
2022-09-06T07:20:15.969Z,21.42
2022-09-06T07:22:43.081Z,21.38
2022-09-06T07:25:12.183Z,21.41
2022-09-06T07:27:48.064Z,21.55
2022-09-06T07:30:15.698Z,21.88
2022-09-06T07:32:42.289Z,22.32
2022-09-06T07:35:09.224Z,22.52
2022-09-06T07:37:35.726Z,22.46
2022-09-06T07:40:03.537Z,22.42
2022-09-06T07:42:35.611Z,22.59
2022-09-06T07:45:04.259Z,22.53
2022-09-06T07:53:11.331Z,22.36
2022-09-06T07:55:42.432Z,22.23
2022-09-06T07:58:08.933Z,22.15
2022-09-06T08:00:35.524Z,22.21
2022-09-06T08:03:02.162Z,22.34
2022-09-06T08:11:02.212Z,22.47
2022-09-06T08:13:28.913Z,22.73
2022-09-06T08:16:00.387Z,22.71
2022-09-06T08:18:27.983Z,22.69
2022-09-06T08:20:55.246Z,22.94
2022-09-06T08:23:22.101Z,23.16
2022-09-06T08:25:58.567Z,23.10
2022-09-06T08:28:28.814Z,23.01
2022-09-06T08:30:56.015Z,22.95
2022-09-06T08:33:25.541Z,22.93
2022-09-06T08:35:58.335Z,22.88
2022-09-06T08:38:25.230Z,22.82
2022-09-06T08:40:54.117Z,22.89
2022-09-06T08:43:22.766Z,22.78
2022-09-06T08:45:56.250Z,22.83
2022-09-06T08:48:27.365Z,22.74
2022-09-06T08:51:38.354Z,22.62
2022-09-06T08:54:16.525Z,22.76
2022-09-06T08:57:00.626Z,22.69
2022-09-06T08:59:29.294Z,22.60
2022-09-06T09:01:55.762Z,22.61
2022-09-06T09:04:26.486Z,22.68
2022-09-06T09:06:59.499Z,22.88
2022-09-06T09:09:30.309Z,22.98
2022-09-06T09:11:58.455Z,23.10
2022-09-06T09:14:28.951Z,23.13
2022-09-06T09:17:03.458Z,23.12
2022-09-06T09:19:33.457Z,23.14
2022-09-06T09:22:00.203Z,22.94
2022-09-06T09:24:26.898Z,23.18
2022-09-06T09:27:06.733Z,23.30
2022-09-06T09:29:36.367Z,22.72
2022-09-06T09:32:03.458Z,22.27
2022-09-06T09:34:35.874Z,22.29
2022-09-06T09:40:13.064Z,22.56
2022-09-06T09:42:40.422Z,22.42
2022-09-06T09:45:24.438Z,22.30
2022-09-06T09:47:51.073Z,22.09
2022-09-06T09:50:33.639Z,22.26
2022-09-06T09:53:12.630Z,22.34
2022-09-06T09:55:40.150Z,22.14
2022-09-06T09:58:17.421Z,22.23
2022-09-06T10:00:44.250Z,22.38
2022-09-06T10:03:17.454Z,22.41
2022-09-06T10:06:02.213Z,22.48
2022-09-06T10:08:33.377Z,22.22
2022-09-06T10:11:00.994Z,22.20
2022-09-06T10:13:29.735Z,22.04
2022-09-06T10:15:58.884Z,22.08
2022-09-06T10:18:35.381Z,22.19
2022-09-06T10:21:22.320Z,22.23
2022-09-06T10:24:27.805Z,22.03
2022-09-06T10:27:02.477Z,21.86
2022-09-06T10:29:53.125Z,21.54
2022-09-06T10:32:38.667Z,21.69
2022-09-06T10:35:29.970Z,21.48
2022-09-06T10:38:11.444Z,21.73
2022-09-06T10:40:49.214Z,21.97
2022-09-06T10:43:20.425Z,22.09
2022-09-06T10:45:57.795Z,21.97
2022-09-06T10:48:33.501Z,21.98
2022-09-06T10:51:18.654Z,21.98
2022-09-06T10:53:48.472Z,21.97
2022-09-06T10:56:29.031Z,22.58
2022-09-06T11:02:13.455Z,22.90
2022-09-06T11:07:34.631Z,23.33
2022-09-06T11:10:10.606Z,24.01
2022-09-06T11:12:55.742Z,24.70
2022-09-06T11:15:26.090Z,24.93
2022-09-06T11:17:59.536Z,24.69
2022-09-06T11:20:35.954Z,24.63
2022-09-06T11:23:37.022Z,25.14
2022-09-06T11:26:20.752Z,25.15
2022-09-06T11:28:59.290Z,24.62
2022-09-06T11:34:27.913Z,25.89
2022-09-06T11:37:08.923Z,26.13
2022-09-06T11:43:01.070Z,27.15
2022-09-06T11:45:47.013Z,26.65
2022-09-06T11:48:34.256Z,26.84
2022-09-06T11:51:11.187Z,28.21
2022-09-06T11:53:49.922Z,29.67
2022-09-06T11:56:33.742Z,28.90
2022-09-06T11:59:11.239Z,30.14
2022-09-06T12:01:39.051Z,28.93
2022-09-06T12:04:08.317Z,28.84
2022-09-06T12:06:35.677Z,29.85
2022-09-06T12:09:22.688Z,29.96
2022-09-06T12:11:49.453Z,28.89
2022-09-06T12:14:52.108Z,27.89
2022-09-06T12:17:20.532Z,26.99
2022-09-06T12:19:59.526Z,26.61
2022-09-06T12:22:40.234Z,26.66
2022-09-06T12:25:16.699Z,26.57
2022-09-06T12:27:58.162Z,26.60
2022-09-06T12:30:43.719Z,26.33
2022-09-06T12:33:25.342Z,26.21
2022-09-06T12:38:25.641Z,26.20
2022-09-06T12:40:56.484Z,26.69
2022-09-06T12:43:23.033Z,27.58
2022-09-06T12:45:52.333Z,28.43
2022-09-06T12:48:35.325Z,28.44
2022-09-06T12:51:07.480Z,28.67
2022-09-06T12:53:34.956Z,29.62
2022-09-06T12:56:10.127Z,31.27
2022-09-06T12:58:37.407Z,34.82
2022-09-06T13:01:17.088Z,35.99
2022-09-06T13:03:55.716Z,32.81
2022-09-06T13:06:27.274Z,33.45
2022-09-06T13:08:57.198Z,31.42
2022-09-06T13:11:39.354Z,30.55
2022-09-06T13:14:19.367Z,33.65
2022-09-06T13:16:48.726Z,35.28
2022-09-06T13:19:42.520Z,36.47
2022-09-06T13:22:13.549Z,37.20
2022-09-06T13:24:47.153Z,35.92
2022-09-06T13:27:36.706Z,37.13
2022-09-06T13:30:09.119Z,33.31
2022-09-06T13:32:37.333Z,31.32
2022-09-06T13:35:04.660Z,31.65
2022-09-06T13:37:35.629Z,32.88
2022-09-06T13:40:05.736Z,32.49
2022-09-06T13:42:37.239Z,36.43
2022-09-06T13:45:31.699Z,37.05
2022-09-06T13:48:13.201Z,37.03
2022-09-06T13:50:44.678Z,36.90
2022-09-06T13:53:11.218Z,36.70
2022-09-06T13:55:37.878Z,36.74
2022-09-06T13:58:04.394Z,37.08
2022-09-06T14:00:31.218Z,33.14
2022-09-06T14:02:58.943Z,33.08
2022-09-06T14:05:25.717Z,33.92
2022-09-06T14:07:52.242Z,31.79
2022-09-06T14:10:21.354Z,33.11
2022-09-06T14:12:47.968Z,32.78
2022-09-06T14:15:14.651Z,32.46
2022-09-06T14:17:41.264Z,30.99
2022-09-06T14:20:08.850Z,33.11
2022-09-06T14:22:35.405Z,34.33
2022-09-06T14:25:01.957Z,32.95
2022-09-06T14:27:28.558Z,33.76
2022-09-06T14:29:55.099Z,33.92
2022-09-06T14:32:22.672Z,32.94
2022-09-06T14:34:49.544Z,30.91
2022-09-06T14:37:16.133Z,32.27
2022-09-06T14:39:42.748Z,32.15
2022-09-06T14:42:09.324Z,30.75
2022-09-06T14:44:35.903Z,30.19
2022-09-06T14:47:03.391Z,29.97
2022-09-06T14:49:29.913Z,29.97
2022-09-06T14:51:56.578Z,30.18
2022-09-06T14:54:26.197Z,30.29
2022-09-06T14:56:56.501Z,29.39
2022-09-06T14:59:23.036Z,29.20
2022-09-06T15:01:49.666Z,29.26
2022-09-06T15:04:16.621Z,29.13
2022-09-06T15:06:47.093Z,29.23
2022-09-06T15:09:15.885Z,30.40
2022-09-06T15:11:45.171Z,30.27
2022-09-06T15:14:17.398Z,31.39
2022-09-06T15:16:45.755Z,31.82
2022-09-06T15:19:12.967Z,31.80
2022-09-06T15:21:40.068Z,31.90
2022-09-06T15:24:11.529Z,31.73
2022-09-06T15:26:38.950Z,32.77
2022-09-06T15:29:05.455Z,34.44
2022-09-06T15:31:34.301Z,33.91
2022-09-06T15:34:02.739Z,34.45
2022-09-06T15:36:29.921Z,35.61
2022-09-06T15:39:01.031Z,34.72
2022-09-06T15:41:30.223Z,34.23
2022-09-06T15:43:59.293Z,36.20
2022-09-06T15:46:34.754Z,37.31
2022-09-06T15:49:05.730Z,37.49
2022-09-06T15:51:35.117Z,36.27
2022-09-06T15:54:01.644Z,37.23
2022-09-06T15:56:28.259Z,36.29
2022-09-06T15:58:54.771Z,36.13
2022-09-06T16:01:23.778Z,33.12
2022-09-06T16:03:53.725Z,31.98
2022-09-06T16:09:02.743Z,29.87
2022-09-06T16:11:30.265Z,32.92
2022-09-06T16:13:57.052Z,33.28
2022-09-06T16:16:23.932Z,30.50
2022-09-06T16:18:52.266Z,32.71
2022-09-06T16:21:25.098Z,32.42
2022-09-06T16:23:53.884Z,31.94
2022-09-06T16:26:22.053Z,31.57
2022-09-06T16:28:50.806Z,31.30
2022-09-06T16:31:18.707Z,31.79
2022-09-06T16:33:45.807Z,30.60
2022-09-06T16:36:13.938Z,29.28
2022-09-06T16:38:41.391Z,29.22
2022-09-06T16:41:09.721Z,28.79
2022-09-06T16:43:36.406Z,28.53
2022-09-06T16:46:04.364Z,28.53
2022-09-06T16:48:31.205Z,28.15
2022-09-06T16:50:58.368Z,27.98
2022-09-06T16:53:25.106Z,27.62
2022-09-06T16:55:51.626Z,28.09
2022-09-06T16:58:18.186Z,27.44
2022-09-06T17:00:47.671Z,27.63
2022-09-06T17:03:14.416Z,27.52
2022-09-06T17:05:41.185Z,27.36
2022-09-06T17:08:07.917Z,27.49
2022-09-06T17:10:38.575Z,27.46
2022-09-06T17:13:05.086Z,27.98
2022-09-06T17:15:51.681Z,27.67
2022-09-06T17:18:18.184Z,27.62
2022-09-06T17:20:58.222Z,26.85
2022-09-06T17:23:24.798Z,26.64
2022-09-06T17:25:51.993Z,26.83
2022-09-06T17:28:19.077Z,26.55
2022-09-06T17:30:45.647Z,26.68
2022-09-06T17:33:13.511Z,26.86
2022-09-06T17:35:40.380Z,26.92
2022-09-06T17:38:06.869Z,26.81
2022-09-06T17:40:33.618Z,26.66
2022-09-06T17:43:00.637Z,26.81
2022-09-06T17:45:27.435Z,26.63
2022-09-06T17:47:53.973Z,26.63
2022-09-06T17:50:20.569Z,26.52
2022-09-06T17:52:50.797Z,26.44
2022-09-06T17:55:17.457Z,26.43
2022-09-06T17:57:43.998Z,26.42
2022-09-06T18:00:11.205Z,26.27
2022-09-06T18:02:38.694Z,26.38
2022-09-06T18:05:05.716Z,26.33
2022-09-06T18:07:32.286Z,26.23
2022-09-06T18:09:58.794Z,26.30
2022-09-06T18:12:25.655Z,26.19
2022-09-06T18:14:52.595Z,26.12
2022-09-06T18:17:19.085Z,25.97
2022-09-06T18:19:45.618Z,25.84
2022-09-06T18:22:12.108Z,25.76
2022-09-06T18:24:38.813Z,25.81
2022-09-06T18:27:05.449Z,25.83
2022-09-06T18:29:32.946Z,25.68
2022-09-06T18:31:59.629Z,25.55
2022-09-06T18:34:26.244Z,25.56
2022-09-06T18:36:52.844Z,25.49
2022-09-06T18:39:20.322Z,25.52
2022-09-06T18:42:02.910Z,25.41
2022-09-06T18:44:32.354Z,25.44
2022-09-06T18:47:05.668Z,25.35
2022-09-06T18:49:33.795Z,25.30
2022-09-06T18:52:05.105Z,25.19
2022-09-06T18:54:32.357Z,25.26
2022-09-06T18:56:59.326Z,25.24
2022-09-06T18:59:26.006Z,25.22
2022-09-06T19:01:52.967Z,25.07
2022-09-06T19:04:19.645Z,24.97
2022-09-06T19:06:46.210Z,24.83
2022-09-06T19:09:15.809Z,24.90
2022-09-06T19:11:43.491Z,24.86
2022-09-06T19:14:10.174Z,24.79
2022-09-06T19:16:36.762Z,24.79
2022-09-06T19:19:05.913Z,24.70
2022-09-06T19:21:35.632Z,24.80
2022-09-06T19:24:07.310Z,24.77
2022-09-06T19:26:37.683Z,24.69
2022-09-06T19:29:07.363Z,24.67
2022-09-06T19:31:37.254Z,24.69
2022-09-06T19:34:04.534Z,24.65
2022-09-06T19:36:31.932Z,24.51
2022-09-06T19:39:07.489Z,24.46
2022-09-06T19:41:37.908Z,24.38
2022-09-06T19:44:05.915Z,24.42
2022-09-06T19:46:32.900Z,24.42
2022-09-06T19:49:00.535Z,24.36
2022-09-06T19:51:27.198Z,24.35
2022-09-06T19:54:00.024Z,24.31
2022-09-06T19:56:31.552Z,24.27
2022-09-06T19:59:00.232Z,24.19
2022-09-06T20:01:29.354Z,24.23
2022-09-06T20:03:56.629Z,24.22
2022-09-06T20:06:23.489Z,24.24
2022-09-06T20:08:52.255Z,24.12
2022-09-06T20:11:20.640Z,24.10
2022-09-06T20:13:47.722Z,24.10
2022-09-06T20:16:15.719Z,24.09
2022-09-06T20:18:42.341Z,24.03
2022-09-06T20:21:09.726Z,23.98
2022-09-06T20:23:36.731Z,23.92
2022-09-06T20:26:08.557Z,23.95
2022-09-06T20:28:36.691Z,23.93
2022-09-06T20:31:08.830Z,24.03
2022-09-06T20:33:36.162Z,24.10
2022-09-06T20:36:06.213Z,23.96
2022-09-06T20:38:34.800Z,23.99
2022-09-06T20:41:13.401Z,23.95
2022-09-06T20:43:40.655Z,23.93
2022-09-06T20:46:14.777Z,23.96
2022-09-06T20:48:44.685Z,23.93
2022-09-06T20:51:19.495Z,23.85
2022-09-06T20:53:48.131Z,23.86
2022-09-06T20:56:17.370Z,23.80
2022-09-06T20:58:49.491Z,23.82
2022-09-06T21:01:22.974Z,23.83
2022-09-06T21:03:52.527Z,23.79
2022-09-06T21:06:20.655Z,23.76
2022-09-06T21:08:48.233Z,23.77
2022-09-06T21:11:15.104Z,23.78
2022-09-06T21:13:42.059Z,23.83
2022-09-06T21:16:09.060Z,23.81
2022-09-06T21:18:36.519Z,23.77
2022-09-06T21:21:06.158Z,23.71
2022-09-06T21:23:35.165Z,23.79
2022-09-06T21:26:10.294Z,23.76
2022-09-06T21:28:39.781Z,23.72
2022-09-06T21:31:15.555Z,23.73
2022-09-06T21:33:47.414Z,23.70
2022-09-06T21:36:18.250Z,23.67
2022-09-06T21:38:46.974Z,23.55
2022-09-06T21:41:15.729Z,23.54
2022-09-06T21:43:43.187Z,23.52
2022-09-06T21:46:15.324Z,23.52
2022-09-06T21:48:45.797Z,23.56
2022-09-06T21:51:14.579Z,23.54
2022-09-06T21:53:43.109Z,23.43
2022-09-06T21:56:10.504Z,23.39
2022-09-06T21:58:37.673Z,23.32
2022-09-06T22:01:05.132Z,23.29
2022-09-06T22:03:35.207Z,23.21
2022-09-06T22:06:09.891Z,23.14
2022-09-06T22:08:36.614Z,23.16
2022-09-06T22:11:21.998Z,23.11
2022-09-06T22:13:49.647Z,23.15
2022-09-06T22:16:18.555Z,23.13
2022-09-06T22:18:45.265Z,23.11
2022-09-06T22:21:18.649Z,23.08
2022-09-06T22:24:06.684Z,23.10
2022-09-06T22:26:36.600Z,23.11
2022-09-06T22:29:05.765Z,22.99
2022-09-06T22:31:33.869Z,23.01
2022-09-06T22:34:01.261Z,23.04
2022-09-06T22:36:28.513Z,22.95
2022-09-06T22:38:58.827Z,22.94
2022-09-06T22:41:27.218Z,22.83
2022-09-06T22:43:54.527Z,22.84
2022-09-06T22:46:21.418Z,22.71
2022-09-06T22:48:48.093Z,22.70
2022-09-06T22:51:14.967Z,22.54
2022-09-06T22:53:41.578Z,22.51
2022-09-06T22:56:08.190Z,22.42
2022-09-06T22:58:35.436Z,22.29
2022-09-06T23:01:07.609Z,22.42
2022-09-06T23:03:35.365Z,22.39
2022-09-06T23:06:02.941Z,22.41
2022-09-06T23:08:30.617Z,22.34
2022-09-06T23:10:57.258Z,22.33
2022-09-06T23:13:23.845Z,22.43
2022-09-06T23:15:50.392Z,22.29
2022-09-06T23:18:17.021Z,22.26
2022-09-06T23:20:43.521Z,22.21
2022-09-06T23:23:10.015Z,22.09
2022-09-06T23:25:38.781Z,22.10
2022-09-06T23:28:05.654Z,22.13
2022-09-06T23:30:32.197Z,22.12
2022-09-06T23:32:58.705Z,22.08
2022-09-06T23:35:25.364Z,22.11
2022-09-06T23:37:52.337Z,22.19
2022-09-06T23:40:19.597Z,22.15
2022-09-06T23:42:46.668Z,22.01
2022-09-06T23:45:13.327Z,22.05
2022-09-06T23:47:40.092Z,22.02
2022-09-06T23:50:07.337Z,22.01
2022-09-06T23:52:33.892Z,22.03
2022-09-06T23:55:00.417Z,21.99
2022-09-06T23:57:26.898Z,21.82
2022-09-06T23:59:53.455Z,21.79
